地図

経路データ

SID SEASON NUMBER BASIN SUBBASIN NAME ISO_TIME NATURE LAT LON WMO_WIND WMO_PRES WMO_AGENCY TRACK_TYPE DIST2LAND LANDFALL IFLAG USA_AGENCY USA_ATCF_ID USA_LAT USA_LON USA_RECORD USA_STATUS USA_WIND USA_PRES USA_SSHS USA_R34_NE USA_R34_SE USA_R34_SW USA_R34_NW USA_R50_NE USA_R50_SE USA_R50_SW USA_R50_NW USA_R64_NE USA_R64_SE USA_R64_SW USA_R64_NW USA_POCI USA_ROCI USA_RMW USA_EYE TOKYO_LAT TOKYO_LON TOKYO_GRADE TOKYO_WIND TOKYO_PRES TOKYO_R50_DIR TOKYO_R50_LONG TOKYO_R50_SHORT TOKYO_R30_DIR TOKYO_R30_LONG TOKYO_R30_SHORT TOKYO_LAND CMA_LAT CMA_LON CMA_CAT CMA_WIND CMA_PRES HKO_LAT HKO_LON HKO_CAT HKO_WIND HKO_PRES NEWDELHI_LAT NEWDELHI_LON NEWDELHI_GRADE NEWDELHI_WIND NEWDELHI_PRES NEWDELHI_CI NEWDELHI_DP NEWDELHI_POCI REUNION_LAT REUNION_LON REUNION_TYPE REUNION_WIND REUNION_PRES REUNION_TNUM REUNION_CI REUNION_RMW REUNION_R34_NE REUNION_R34_SE REUNION_R34_SW REUNION_R34_NW REUNION_R50_NE REUNION_R50_SE REUNION_R50_SW REUNION_R50_NW REUNION_R64_NE REUNION_R64_SE REUNION_R64_SW REUNION_R64_NW BOM_LAT BOM_LON BOM_TYPE BOM_WIND BOM_PRES BOM_TNUM BOM_CI BOM_RMW BOM_R34_NE BOM_R34_SE BOM_R34_SW BOM_R34_NW BOM_R50_NE BOM_R50_SE BOM_R50_SW BOM_R50_NW BOM_R64_NE BOM_R64_SE BOM_R64_SW BOM_R64_NW BOM_ROCI BOM_POCI BOM_EYE BOM_POS_METHOD BOM_PRES_METHOD NADI_LAT NADI_LON NADI_CAT NADI_WIND NADI_PRES WELLINGTON_LAT WELLINGTON_LON WELLINGTON_WIND WELLINGTON_PRES DS824_LAT DS824_LON DS824_STAGE DS824_WIND DS824_PRES TD9636_LAT TD9636_LON TD9636_STAGE TD9636_WIND TD9636_PRES TD9635_LAT TD9635_LON TD9635_WIND TD9635_PRES TD9635_ROCI NEUMANN_LAT NEUMANN_LON NEUMANN_CLASS NEUMANN_WIND NEUMANN_PRES MLC_LAT MLC_LON MLC_CLASS MLC_WIND MLC_PRES USA_GUST BOM_GUST BOM_GUST_PER REUNION_GUST REUNION_GUST_PER USA_SEAHGT USA_SEARAD_NE USA_SEARAD_SE USA_SEARAD_SW USA_SEARAD_NW STORM_SPEED STORM_DIR
1866193N27271 1866 15 NA GM NOT_NAMED 1866-07-11 12:00:00 TS 27.2333 -88.8000 90 hurdat_atl main 203 201 O____________O hurdat_atl AL011866 28.0000 -87.3000 HU 90 2 25.7000 -91.8000 TD 25 3 270
1866193N27271 1866 15 NA GM NOT_NAMED 1866-07-11 15:00:00 TS 27.2342 -88.9633 main 201 200 P____________P AL011866 28.0001 -87.5500 HU 90 2 25.7025 -91.7900 TD 27 3 270
1866193N27271 1866 15 NA GM NOT_NAMED 1866-07-11 18:00:00 TS 27.2333 -89.1333 90 hurdat_atl main 200 200 O____________O hurdat_atl AL011866 28.0000 -87.8000 HU 90 2 25.7000 -91.8000 TD 30 3 269
1866193N27271 1866 15 NA GM NOT_NAMED 1866-07-11 21:00:00 TS 27.2308 -89.3142 main 201 201 P____________P AL011866 28.0000 -88.0500 HU 90 2 25.6925 -91.8425 TD 30 3 270
1866193N27271 1866 15 NA GM NOT_NAMED 1866-07-12 00:00:00 TS 27.2333 -89.5000 90 hurdat_atl main 204 204 O____________O hurdat_atl AL011866 28.0000 -88.3000 HU 90 2 25.7000 -91.9000 TD 30 3 272
1866193N27271 1866 15 NA GM NOT_NAMED 1866-07-12 03:00:00 TS 27.2450 -89.6809 main 209 198 P____________P AL011866 27.9925 -88.5501 HU 90 2 25.7500 -91.9425 TD 32 3 276
1866193N27271 1866 15 NA GM NOT_NAMED 1866-07-12 06:00:00 TS 27.2667 -89.8667 90 hurdat_atl main 201 201 O____________O hurdat_atl AL011866 28.0000 -88.8000 HU 90 2 25.8000 -92.0000 TS 35 3 279
1866193N27271 1866 15 NA GM NOT_NAMED 1866-07-12 09:00:00 TS 27.2999 -90.0541 main 200 200 P____________P AL011866 28.0499 -89.0424 HU 90 2 25.8000 -92.0775 TS 40 4 281
1866193N27271 1866 15 NA GM NOT_NAMED 1866-07-12 12:00:00 TS 27.3333 -90.2667 90 hurdat_atl main 201 190 O____________O hurdat_atl AL011866 28.1000 -89.3000 HU 90 2 25.8000 -92.2000 TS 45 4 278
1866193N27271 1866 15 NA GM NOT_NAMED 1866-07-12 15:00:00 TS 27.3550 -90.5234 main 190 189 P____________P AL011866 28.1075 -89.5926 HU 90 2 25.8500 -92.3849 TS 50 5 274
1866193N27271 1866 15 NA GM NOT_NAMED 1866-07-12 18:00:00 TS 27.3667 -90.8000 90 hurdat_atl main 190 189 O____________O hurdat_atl AL011866 28.1000 -89.9000 HU 90 2 25.9000 -92.6000 TS 55 5 271
1866193N27271 1866 15 NA GM NOT_NAMED 1866-07-12 21:00:00 TS 27.3666 -91.0667 main 190 190 P____________P AL011866 28.0999 -90.2000 HU 90 2 25.9000 -92.8001 TS 57 5 270
1866193N27271 1866 15 NA GM NOT_NAMED 1866-07-13 00:00:00 TS 27.3667 -91.3333 90 hurdat_atl main 193 193 O____________O hurdat_atl AL011866 28.1000 -90.5000 HU 90 2 25.9000 -93.0000 TS 60 5 271
1866193N27271 1866 15 NA GM NOT_NAMED 1866-07-13 03:00:00 TS 27.3758 -91.6000 main 201 201 P____________P AL011866 28.0924 -90.8001 HU 90 2 25.9425 -93.2000 TS 60 5 274
1866193N27271 1866 15 NA GM NOT_NAMED 1866-07-13 06:00:00 TS 27.4000 -91.8667 90 hurdat_atl main 213 213 O____________O hurdat_atl AL011866 28.1000 -91.1000 HU 90 2 26.0000 -93.4000 TS 60 5 279
1866193N27271 1866 15 NA GM NOT_NAMED 1866-07-13 09:00:00 TS 27.4499 -92.1333 main 223 213 P____________P AL011866 28.1499 -91.3999 HU 90 2 26.0500 -93.6000 TS 62 5 282
1866193N27271 1866 15 NA GM NOT_NAMED 1866-07-13 12:00:00 TS 27.5000 -92.4000 90 hurdat_atl main 223 223 O____________O hurdat_atl AL011866 28.2000 -91.7000 HU 90 2 26.1000 -93.8000 HU 65 5 279
1866193N27271 1866 15 NA GM NOT_NAMED 1866-07-13 15:00:00 TS 27.5216 -92.6667 main 226 226 P____________P AL011866 28.2074 -92.0001 HU 90 2 26.1500 -94.0000 HU 65 5 274
1866193N27271 1866 15 NA GM NOT_NAMED 1866-07-13 18:00:00 TS 27.5333 -92.9333 90 hurdat_atl main 230 230 O____________O hurdat_atl AL011866 28.2000 -92.3000 HU 90 2 26.2000 -94.2000 HU 65 5 273
1866193N27271 1866 15 NA GM NOT_NAMED 1866-07-13 21:00:00 TS 27.5499 -93.2000 main 239 228 P____________P AL011866 28.1999 -92.6000 HU 90 2 26.2500 -94.4000 HU 65 5 274
1866193N27271 1866 15 NA GM NOT_NAMED 1866-07-14 00:00:00 TS 27.5667 -93.4667 90 hurdat_atl main 228 214 O____________O hurdat_atl AL011866 28.2000 -92.9000 HU 90 2 26.3000 -94.6000 HU 65 5 273
1866193N27271 1866 15 NA GM NOT_NAMED 1866-07-14 03:00:00 TS 27.5758 -93.7334 main 214 195 P____________P AL011866 28.1924 -93.2001 HU 90 2 26.3425 -94.8001 HU 67 5 274
1866193N27271 1866 15 NA GM NOT_NAMED 1866-07-14 06:00:00 TS 27.6000 -94.0000 90 hurdat_atl main 195 169 O____________O hurdat_atl AL011866 28.2000 -93.5000 HU 90 2 26.4000 -95.0000 HU 70 5 280
1866193N27271 1866 15 NA GM NOT_NAMED 1866-07-14 09:00:00 TS 27.6616 -94.2666 main 169 160 P____________P AL011866 28.2499 -93.7999 HU 90 2 26.4850 -95.2000 HU 70 5 286
1866193N27271 1866 15 NA GM NOT_NAMED 1866-07-14 12:00:00 TS 27.7333 -94.5333 90 hurdat_atl main 160 136 O____________O hurdat_atl AL011866 28.3000 -94.1000 HU 90 2 26.6000 -95.4000 HU 70 5 284
1866193N27271 1866 15 NA GM NOT_NAMED 1866-07-14 15:00:00 TS 27.7783 -94.8001 main 136 125 P____________P AL011866 28.2999 -94.4001 HU 90 2 26.7350 -95.6001 HU 70 5 282
1866193N27271 1866 15 NA GM NOT_NAMED 1866-07-14 18:00:00 TS 27.8333 -95.0667 90 hurdat_atl main 125 103 O____________O hurdat_atl AL011866 28.3000 -94.7000 HU 90 2 26.9000 -95.8000 HU 70 5 287
1866193N27271 1866 15 NA GM NOT_NAMED 1866-07-14 21:00:00 TS 27.9233 -95.3333 main 103 77 P____________P AL011866 28.3424 -95.0000 HU 90 2 27.0850 -96.0001 HU 72 5 293
1866193N27271 1866 15 NA GM NOT_NAMED 1866-07-15 00:00:00 TS 28.0333 -95.6000 90 hurdat_atl main 77 53 O____________O hurdat_atl AL011866 28.4000 -95.3000 HU 90 2 27.3000 -96.2000 HU 75 5 295
1866193N27271 1866 15 NA GM NOT_NAMED 1866-07-15 03:00:00 TS 28.1474 -95.8667 main 53 24 P____________P AL011866 28.4574 -95.6000 HU 90 2 27.5275 -96.4001 HU 75 5 296
1866193N27271 1866 15 NA GM NOT_NAMED 1866-07-15 06:00:00 TS 28.2667 -96.1333 90 hurdat_atl main 24 0 O____________O hurdat_atl AL011866 28.5000 -95.9000 HU 90 2 27.8000 -96.6000 HU 75 5 296
1866193N27271 1866 15 NA GM NOT_NAMED 1866-07-15 09:00:00 TS 28.3758 -96.3976 main 0 0 P____________P AL011866 28.4999 -96.2001 HU 90 2 28.1274 -96.7927 HU 65 5 296
1866193N27271 1866 15 NA NA NOT_NAMED 1866-07-15 12:00:00 TS 28.5000 -96.6667 90 hurdat_atl main 0 0 O____________O hurdat_atl AL011866 28.5000 -96.5000 L HU 90 2 28.5000 -97.0000 TS 55 6 301
1866193N27271 1866 15 NA NA NOT_NAMED 1866-07-15 15:00:00 TS 28.6616 -96.9450 main 0 0 P____________P AL011866 28.5499 -96.7999 HU 75 1 28.8850 -97.2352 TS 47 6 306
1866193N27271 1866 15 NA NA NOT_NAMED 1866-07-15 18:00:00 TS 28.8800 -97.2600 60 hurdat_atl main 0 0 O____________O hurdat_atl AL011866 28.6000 -97.1000 TS 60 0 29.3000 -97.5000 TS 40 8 312
1866193N27271 1866 15 NA NA NOT_NAMED 1866-07-15 21:00:00 TS 29.1813 -97.5963 main 0 0 P____________P AL011866 28.6126 -97.4001 TS 50 0 29.7500 -97.7925 TS 35 10 322
1866193N27271 1866 15 NA NA NOT_NAMED 1866-07-16 00:00:00 TS 29.6667 -97.9667 40 hurdat_atl main 0 0 O____________O hurdat_atl AL011866 28.6000 -97.7000 TS 40 0 30.2000 -98.1000 TD 30 16 334
1866193N27271 1866 15 NA NA NOT_NAMED 1866-07-16 03:00:00 TS 30.6074 -98.4003 main 0 0 _____________P AL011866 TS -1 30.6074 -98.4003 TD 27 15 335
1866193N27271 1866 15 NA NA NOT_NAMED 1866-07-16 06:00:00 TS 31.0000 -98.7000 main 0 0 _____________O 31.0000 -98.7000 TD 25 9 327
1866193N27271 1866 15 NA NA NOT_NAMED 1866-07-16 09:00:00 TS 31.3976 -98.9995 main 0 0 _____________P 31.3976 -98.9995 TD 22 10 327
1866193N27271 1866 15 NA NA NOT_NAMED 1866-07-16 12:00:00 TS 31.8000 -99.3000 main 0 _____________O 31.8000 -99.3000 TD 20 10 328

IBTrACS Databaseについて

本データベースは、米国NOAAが公開する1842年以降の世界の熱帯低気圧のベストトラックデータアーカイブInternational Best Track Archive for Climate Stewardship (IBTrACS)を、ウェブで閲覧しやすい形式に変換したものです。

最終更新日:2021-10-08